createdAt,value
2018-10-18T00:01:26.184Z,91.10
2018-10-18T00:06:29.292Z,91.10
2018-10-18T00:11:32.505Z,91.10
2018-10-18T00:16:35.593Z,91.20
2018-10-18T00:21:38.722Z,91.30
2018-10-18T00:26:41.886Z,91.20
2018-10-18T00:31:45.210Z,91.50
2018-10-18T00:36:48.387Z,91.50
2018-10-18T00:41:51.552Z,91.60
2018-10-18T00:46:54.695Z,91.50
2018-10-18T00:51:57.963Z,91.50
2018-10-18T00:57:01.124Z,91.80
2018-10-18T01:02:04.319Z,91.80
2018-10-18T01:07:07.551Z,91.80
2018-10-18T01:12:10.771Z,91.80
2018-10-18T01:17:13.855Z,91.70
2018-10-18T01:22:17.050Z,91.70
2018-10-18T01:27:20.154Z,91.70
2018-10-18T01:32:23.336Z,91.70
2018-10-18T01:37:26.463Z,91.40
2018-10-18T01:42:29.576Z,91.70
2018-10-18T01:47:32.849Z,91.50
2018-10-18T01:52:36.181Z,91.50
2018-10-18T01:57:39.613Z,91.40
2018-10-18T02:02:42.713Z,91.50
2018-10-18T02:07:45.854Z,91.60
2018-10-18T02:12:49.034Z,91.50
2018-10-18T02:17:52.191Z,91.80
2018-10-18T02:22:55.314Z,91.90
2018-10-18T02:27:58.483Z,91.90
2018-10-18T02:33:01.618Z,91.90
2018-10-18T02:38:04.888Z,91.90
2018-10-18T02:43:08.065Z,92.10
2018-10-18T02:48:11.298Z,92.40
2018-10-18T02:53:14.354Z,92.00
2018-10-18T02:58:17.520Z,92.20
2018-10-18T03:03:20.801Z,92.10
2018-10-18T03:08:23.990Z,92.10
2018-10-18T03:13:27.169Z,92.20
2018-10-18T03:18:30.277Z,92.30
2018-10-18T03:23:33.346Z,92.40
2018-10-18T03:28:36.486Z,92.70
2018-10-18T03:33:39.694Z,92.80
2018-10-18T03:38:42.795Z,92.90
2018-10-18T03:43:45.982Z,93.10
2018-10-18T03:48:49.123Z,92.90
2018-10-18T03:53:52.326Z,92.80
2018-10-18T03:58:55.388Z,92.90
2018-10-18T04:03:58.592Z,93.00
2018-10-18T04:09:01.774Z,93.00
2018-10-18T04:14:05.152Z,93.20
2018-10-18T04:19:08.357Z,93.40
2018-10-18T04:24:11.558Z,93.30
2018-10-18T04:29:14.626Z,93.30
2018-10-18T04:34:17.752Z,93.20
2018-10-18T04:39:20.880Z,93.30
2018-10-18T04:44:24.022Z,93.20
2018-10-18T04:49:27.150Z,93.30
2018-10-18T04:54:30.281Z,93.40
2018-10-18T04:59:33.427Z,93.20
2018-10-18T05:04:36.588Z,93.10
2018-10-18T05:09:40.053Z,93.20
2018-10-18T05:14:43.153Z,93.20
2018-10-18T05:19:46.287Z,93.50
2018-10-18T05:24:49.482Z,93.50
2018-10-18T05:29:52.644Z,93.50
2018-10-18T05:34:55.768Z,93.60
2018-10-18T05:39:58.904Z,93.60
2018-10-18T05:45:02.067Z,93.70
2018-10-18T05:50:05.988Z,93.40
2018-10-18T05:55:10.500Z,93.40
2018-10-18T06:00:18.569Z,93.30
2018-10-18T06:05:21.636Z,93.30
2018-10-18T06:11:01.386Z,93.40
2018-10-18T06:16:04.551Z,93.60
2018-10-18T06:21:07.704Z,93.90
2018-10-18T06:26:10.898Z,93.60
2018-10-18T06:31:14.157Z,93.40
2018-10-18T06:36:17.210Z,93.20
2018-10-18T06:41:20.343Z,93.00
2018-10-18T06:46:23.550Z,92.80
2018-10-18T06:51:26.709Z,92.70
2018-10-18T06:56:29.898Z,92.00
2018-10-18T07:01:33.014Z,91.50
2018-10-18T07:06:36.152Z,90.20
2018-10-18T07:11:39.516Z,87.70
2018-10-18T07:16:42.685Z,84.30
2018-10-18T07:21:45.857Z,82.70
2018-10-18T07:26:49.258Z,80.60
2018-10-18T07:31:52.414Z,81.20
2018-10-18T07:36:55.623Z,81.00
2018-10-18T07:41:58.821Z,81.30
2018-10-18T07:47:02.019Z,84.60
2018-10-18T07:52:05.108Z,85.60
2018-10-18T07:57:08.335Z,86.40
2018-10-18T08:02:11.419Z,86.40
2018-10-18T08:07:14.622Z,86.30
2018-10-18T08:12:17.746Z,86.20
2018-10-18T08:17:20.946Z,86.30
2018-10-18T08:22:24.101Z,85.80
2018-10-18T08:27:27.205Z,85.90
2018-10-18T08:32:30.383Z,85.80
2018-10-18T08:37:33.952Z,85.20
2018-10-18T08:42:37.071Z,84.70
2018-10-18T08:47:40.436Z,84.60
2018-10-18T08:52:43.590Z,84.30
2018-10-18T08:57:46.762Z,84.00
2018-10-18T09:02:51.149Z,84.00
2018-10-18T09:07:54.322Z,84.00
2018-10-18T09:12:57.444Z,84.10
2018-10-18T09:18:00.687Z,83.70
2018-10-18T09:23:03.827Z,83.20
2018-10-18T09:28:06.978Z,82.60
2018-10-18T09:33:10.121Z,81.80
2018-10-18T09:38:13.275Z,81.10
2018-10-18T09:43:16.407Z,77.60
2018-10-18T09:48:19.590Z,74.60
2018-10-18T09:53:22.936Z,72.90
2018-10-18T09:58:26.141Z,71.30
2018-10-18T10:03:29.250Z,69.20
2018-10-18T10:08:32.478Z,69.80
2018-10-18T10:13:35.627Z,71.70
2018-10-18T10:18:38.801Z,71.80
2018-10-18T10:23:42.008Z,72.40
2018-10-18T10:28:45.119Z,68.30
2018-10-18T10:33:48.238Z,65.40
2018-10-18T10:38:51.388Z,65.00
2018-10-18T10:43:54.583Z,63.10
2018-10-18T10:48:57.825Z,61.30
2018-10-18T10:54:01.008Z,59.50
2018-10-18T10:59:16.006Z,58.70
2018-10-18T11:04:19.173Z,58.50
2018-10-18T11:09:22.460Z,57.70
2018-10-18T11:14:25.481Z,57.60
2018-10-18T11:19:28.696Z,56.20
2018-10-18T11:24:31.922Z,56.80
2018-10-18T11:29:35.025Z,56.60
2018-10-18T11:34:38.236Z,55.60
2018-10-18T11:39:41.335Z,53.60
2018-10-18T11:44:44.483Z,53.70
2018-10-18T11:49:47.682Z,51.40
2018-10-18T11:54:50.847Z,51.00
2018-10-18T11:59:54.038Z,49.60
2018-10-18T12:04:57.196Z,49.80
2018-10-18T12:10:00.350Z,51.80
2018-10-18T12:15:03.599Z,52.40
2018-10-18T12:20:09.298Z,51.80
2018-10-18T12:25:13.838Z,51.30
2018-10-18T12:30:17.008Z,53.00
2018-10-18T12:35:20.160Z,54.20
2018-10-18T12:40:23.443Z,54.30
2018-10-18T12:45:26.533Z,51.50
2018-10-18T12:50:29.758Z,52.50
2018-10-18T12:55:32.906Z,53.90
2018-10-18T13:00:36.134Z,54.00
2018-10-18T13:05:39.279Z,55.10
2018-10-18T13:10:42.414Z,56.20
2018-10-18T13:15:45.622Z,57.90
2018-10-18T13:20:48.771Z,57.20
2018-10-18T13:25:51.971Z,57.80
2018-10-18T13:30:55.130Z,57.50
2018-10-18T13:35:58.392Z,57.80
2018-10-18T13:41:01.534Z,59.30
2018-10-18T13:46:04.974Z,61.40
2018-10-18T13:51:08.142Z,61.60
2018-10-18T13:56:12.753Z,64.10
2018-10-18T14:01:15.874Z,65.40
2018-10-18T14:06:19.160Z,66.30
2018-10-18T14:11:22.380Z,65.70
2018-10-18T14:16:25.563Z,66.00
2018-10-18T14:21:28.733Z,65.50
2018-10-18T14:26:31.930Z,64.90
2018-10-18T14:31:37.602Z,65.20
2018-10-18T14:36:40.786Z,65.20
2018-10-18T14:41:43.969Z,65.80
2018-10-18T14:46:47.138Z,66.10
2018-10-18T14:51:50.589Z,66.00
2018-10-18T14:56:53.750Z,64.90
2018-10-18T15:01:56.933Z,65.50
2018-10-18T15:07:00.073Z,65.80
2018-10-18T15:12:03.254Z,66.70
2018-10-18T15:17:06.563Z,67.30
2018-10-18T15:22:09.749Z,68.20
2018-10-18T15:27:13.024Z,68.80
2018-10-18T15:32:16.161Z,69.70
2018-10-18T15:37:19.266Z,69.90
2018-10-18T15:42:22.438Z,69.90
2018-10-18T15:47:25.650Z,70.60
2018-10-18T15:52:28.845Z,71.30
2018-10-18T15:57:31.953Z,72.30
2018-10-18T16:02:35.111Z,72.90
2018-10-18T16:07:38.394Z,73.80
2018-10-18T16:12:41.540Z,74.50
2018-10-18T16:17:44.856Z,75.30
2018-10-18T16:22:47.950Z,75.80
2018-10-18T16:27:51.158Z,76.20
2018-10-18T16:32:54.346Z,76.60
2018-10-18T16:37:57.553Z,77.00
2018-10-18T16:43:00.703Z,77.30
2018-10-18T16:48:03.968Z,77.80
2018-10-18T16:53:07.924Z,78.10
2018-10-18T16:58:11.643Z,78.50
2018-10-18T17:03:14.790Z,79.20
2018-10-18T17:08:18.029Z,79.30
2018-10-18T17:13:21.160Z,79.60
2018-10-18T17:18:24.439Z,79.80
2018-10-18T17:23:27.579Z,80.10
2018-10-18T17:28:30.693Z,80.30
2018-10-18T17:33:33.895Z,80.70
2018-10-18T17:38:37.101Z,80.90
2018-10-18T17:43:40.308Z,81.10
2018-10-18T17:48:43.563Z,81.60
2018-10-18T17:53:46.719Z,81.90
2018-10-18T17:58:49.883Z,82.40
2018-10-18T18:03:53.072Z,82.60
2018-10-18T18:08:56.799Z,83.10
2018-10-18T18:13:59.968Z,83.80
2018-10-18T18:19:03.066Z,83.70
2018-10-18T18:24:06.274Z,84.30
2018-10-18T18:29:09.368Z,84.20
2018-10-18T18:34:12.645Z,84.90
2018-10-18T18:39:15.785Z,84.50
2018-10-18T18:44:18.908Z,84.70
2018-10-18T18:49:22.207Z,84.60
2018-10-18T18:54:25.375Z,84.90
2018-10-18T18:59:28.516Z,85.00
2018-10-18T19:04:31.667Z,85.60
2018-10-18T19:09:34.842Z,85.20
2018-10-18T19:14:37.994Z,85.10
2018-10-18T19:19:41.139Z,85.00
2018-10-18T19:24:44.301Z,85.00
2018-10-18T19:29:47.465Z,84.80
2018-10-18T19:34:50.627Z,84.40
2018-10-18T19:39:53.747Z,84.40
2018-10-18T19:44:56.871Z,83.60
2018-10-18T19:50:00.009Z,84.70
2018-10-18T19:55:03.347Z,83.90
2018-10-18T20:00:07.522Z,83.90
2018-10-18T20:05:10.706Z,83.60
2018-10-18T20:10:13.814Z,83.60
2018-10-18T20:15:17.056Z,83.60
2018-10-18T20:20:20.144Z,83.60
2018-10-18T20:25:23.336Z,83.00
2018-10-18T20:30:26.469Z,82.70
2018-10-18T20:35:29.733Z,82.60
2018-10-18T20:40:32.847Z,82.50
2018-10-18T20:45:36.765Z,82.40
2018-10-18T20:50:39.874Z,82.00
2018-10-18T20:55:43.097Z,81.80
2018-10-18T21:00:46.250Z,81.80
2018-10-18T21:05:49.405Z,82.00
2018-10-18T21:10:52.610Z,82.40
2018-10-18T21:15:55.779Z,82.50
2018-10-18T21:20:58.946Z,82.00
2018-10-18T21:26:02.195Z,81.60
2018-10-18T21:31:05.862Z,81.70
2018-10-18T21:36:08.984Z,81.30
2018-10-18T21:41:12.210Z,81.30
2018-10-18T21:46:15.319Z,81.30
2018-10-18T21:51:18.470Z,81.40
2018-10-18T21:56:21.628Z,81.70
2018-10-18T22:01:24.791Z,82.00
2018-10-18T22:06:27.929Z,82.10
2018-10-18T22:11:31.033Z,82.30
2018-10-18T22:16:34.187Z,82.10
2018-10-18T22:21:38.384Z,82.00
2018-10-18T22:26:41.517Z,82.00
2018-10-18T22:31:44.734Z,81.70
2018-10-18T22:36:47.876Z,81.60
2018-10-18T22:41:50.952Z,81.60
2018-10-18T22:46:54.196Z,82.10
2018-10-18T22:51:57.367Z,81.50
2018-10-18T22:57:00.530Z,81.60
2018-10-18T23:02:03.733Z,82.00
2018-10-18T23:07:06.930Z,82.10
2018-10-18T23:12:10.089Z,82.40
2018-10-18T23:17:13.262Z,82.50
2018-10-18T23:22:16.345Z,82.30
2018-10-18T23:27:18.841Z,82.30
2018-10-18T23:32:21.956Z,82.50
2018-10-18T23:37:25.056Z,82.50
2018-10-18T23:42:28.248Z,82.50
2018-10-18T23:47:31.400Z,82.60
2018-10-18T23:52:34.770Z,82.60
2018-10-18T23:57:37.941Z,82.70
